Time;durP1;ratioP1;P1;durP2;ratioP2;P2;SDS_P1;SDS_P2;PMS_P1;PMS_P2;Temp;Humidity;BMP_temperature;BMP_pressure;BME280_temperature;BME280_humidity;BME280_pressure;Samples;Min_cycle;Max_cycle;Signal;HPM_P1;HPM_P2
2023/05/13 00:01:14;;;;;;;5.07;2.10;;;;;;;12.53;57.27;98087.66;10586247;28;20119;-68
2023/05/13 00:06:35;;;;;;;7.05;2.17;;;;;;;12.52;57.91;98095.31;10585634;28;20119;-68
2023/05/13 00:11:56;;;;;;;4.05;2.20;;;;;;;12.45;58.33;98089.91;10584914;28;20458;-68
2023/05/13 00:17:16;;;;;;;6.82;3.00;;;;;;;12.44;58.25;98092.00;10585992;28;20119;-68
2023/05/13 00:22:37;;;;;;;4.57;2.38;;;;;;;12.42;58.63;98091.13;10585445;28;20545;-68
2023/05/13 00:27:57;;;;;;;4.55;2.42;;;;;;;12.35;58.69;98101.19;10583967;28;20118;-68
2023/05/13 00:33:18;;;;;;;4.65;2.63;;;;;;;12.31;58.82;98096.06;10555266;28;20489;-68
2023/05/13 00:38:38;;;;;;;4.55;2.40;;;;;;;12.25;59.22;98104.03;10569485;28;20044;-67
2023/05/13 00:44:00;;;;;;;4.93;2.70;;;;;;;12.21;60.15;98103.78;10583138;28;20184;-66
2023/05/13 00:49:21;;;;;;;6.78;3.00;;;;;;;12.11;60.14;98105.19;10584001;28;20074;-68
2023/05/13 00:54:41;;;;;;;4.72;3.30;;;;;;;12.00;60.89;98106.56;10582827;28;20070;-68
2023/05/13 01:00:04;;;;;;;4.32;3.03;;;;;;;11.89;62.01;98098.81;10568410;28;20040;-67
2023/05/13 01:05:32;;;;;;;4.70;3.72;;;;;;;11.84;62.17;98095.00;10583223;28;20115;-68
2023/05/13 01:10:56;;;;;;;4.53;3.55;;;;;;;11.67;63.64;98098.72;10568952;28;20596;-68
2023/05/13 01:16:23;;;;;;;6.05;3.55;;;;;;;11.70;64.19;98086.34;10554520;28;20449;-68
2023/05/13 01:21:51;;;;;;;5.40;3.97;;;;;;;11.75;65.18;98092.94;10567544;28;20434;-68
2023/05/13 01:27:12;;;;;;;8.18;3.92;;;;;;;11.75;64.80;98088.09;10553666;28;20108;-68
2023/05/13 01:32:34;;;;;;;7.13;4.55;;;;;;;11.77;65.09;98095.88;10567611;28;20048;-67
2023/05/13 01:37:56;;;;;;;6.75;4.35;;;;;;;11.67;65.67;98092.38;10567385;28;20111;-68
2023/05/13 01:43:17;;;;;;;5.53;3.83;;;;;;;11.56;65.29;98093.75;10567192;28;20051;-68
2023/05/13 01:48:39;;;;;;;6.88;3.55;;;;;;;11.46;66.34;98084.66;10566988;28;20111;-67
2023/05/13 01:54:01;;;;;;;7.15;4.30;;;;;;;11.37;67.42;98086.16;10567358;28;20161;-67
2023/05/13 01:59:21;;;;;;;5.80;3.55;;;;;;;11.28;67.01;98089.00;10580465;28;20143;-67
2023/05/13 02:04:42;;;;;;;8.95;4.78;;;;;;;11.26;67.79;98097.22;10552294;28;20121;-67
2023/05/13 02:10:03;;;;;;;6.72;3.78;;;;;;;11.30;67.67;98087.09;10581035;28;20123;-67
2023/05/13 02:15:25;;;;;;;5.85;4.10;;;;;;;11.31;68.20;98079.44;10566750;28;20165;-68
2023/05/13 02:20:46;;;;;;;6.82;4.32;;;;;;;11.27;68.90;98079.88;10580601;28;20093;-68
2023/05/13 02:26:06;;;;;;;6.63;4.53;;;;;;;11.29;69.09;98070.88;10566733;28;20046;-67
2023/05/13 02:31:27;;;;;;;7.00;4.20;;;;;;;11.26;69.86;98078.41;10580225;28;20108;-68
2023/05/13 02:36:48;;;;;;;6.78;4.10;;;;;;;11.28;69.46;98075.00;10580028;28;20044;-68
2023/05/13 02:42:09;;;;;;;6.18;4.20;;;;;;;11.28;69.29;98080.59;10581238;28;20441;-68
2023/05/13 02:47:30;;;;;;;5.55;3.65;;;;;;;11.33;69.90;98087.97;10579825;28;20116;-67
2023/05/13 02:52:55;;;;;;;6.63;4.10;;;;;;;11.33;69.77;98085.91;10566330;28;20078;-68
2023/05/13 02:58:17;;;;;;;6.03;3.75;;;;;;;11.33;70.10;98088.69;10579780;28;20119;-68
2023/05/13 03:03:40;;;;;;;5.50;3.83;;;;;;;11.34;69.44;98084.56;10580692;28;20119;-67
2023/05/13 03:09:01;;;;;;;4.43;3.92;;;;;;;11.25;69.41;98085.31;10569082;28;20096;-67
2023/05/13 03:14:22;;;;;;;5.90;3.60;;;;;;;11.16;70.26;98081.22;10572640;28;20114;-68
2023/05/13 03:19:43;;;;;;;6.28;3.90;;;;;;;11.02;70.32;98088.63;10587756;28;20473;-68
2023/05/13 03:25:05;;;;;;;4.45;3.42;;;;;;;10.93;70.22;98091.41;10586970;28;20066;-68
2023/05/13 03:30:33;;;;;;;6.47;3.47;;;;;;;10.85;70.54;98102.75;10573398;28;20131;-68
2023/05/13 03:35:58;;;;;;;3.75;2.90;;;;;;;10.80;70.77;98096.13;10572710;28;20127;-67
2023/05/13 03:41:23;;;;;;;3.40;2.17;;;;;;;10.79;70.37;98093.91;10572136;28;20040;-68
2023/05/13 03:46:43;;;;;;;4.00;2.70;;;;;;;10.78;70.51;98098.03;10571532;28;20063;-68
2023/05/13 03:52:06;;;;;;;3.60;2.90;;;;;;;10.82;70.71;98107.44;10585314;28;20172;-67
2023/05/13 03:57:28;;;;;;;4.17;3.07;;;;;;;10.87;70.72;98105.66;10571517;28;20119;-67
2023/05/13 04:02:49;;;;;;;2.85;2.40;;;;;;;10.86;70.24;98116.09;10571080;28;20452;-68
2023/05/13 04:08:10;;;;;;;5.32;3.15;;;;;;;10.91;70.39;98111.56;10570444;28;20074;-67
2023/05/13 04:13:33;;;;;;;6.57;2.90;;;;;;;10.88;70.01;98116.25;10585296;28;20526;-68
2023/05/13 04:18:54;;;;;;;4.67;2.90;;;;;;;10.91;70.45;98128.31;10583967;28;20495;-67
2023/05/13 04:24:15;;;;;;;4.75;2.40;;;;;;;11.05;70.07;98134.91;10585249;28;20039;-67
2023/05/13 04:29:36;;;;;;;3.33;2.50;;;;;;;11.10;69.80;98133.16;10584558;28;20074;-67
2023/05/13 04:34:57;;;;;;;3.72;2.70;;;;;;;11.16;69.84;98134.31;10569666;28;20123;-67
2023/05/13 04:40:19;;;;;;;3.28;2.67;;;;;;;11.29;69.24;98137.97;10569570;28;20115;-67
2023/05/13 04:45:41;;;;;;;6.15;2.75;;;;;;;11.49;68.83;98136.63;10569338;28;20043;-67
2023/05/13 04:51:05;;;;;;;3.72;2.80;;;;;;;11.65;68.38;98134.94;10583210;28;20558;-67
2023/05/13 04:56:26;;;;;;;5.82;2.67;;;;;;;11.89;68.00;98138.72;10582820;28;20043;-68
2023/05/13 05:01:48;;;;;;;4.55;2.97;;;;;;;12.08;67.01;98148.34;10582747;28;20111;-67
2023/05/13 05:07:09;;;;;;;4.43;3.13;;;;;;;12.09;66.58;98147.75;10582397;28;20462;-68
2023/05/13 05:12:31;;;;;;;5.20;3.10;;;;;;;12.42;66.21;98152.72;10582719;28;20128;-68
2023/05/13 05:17:51;;;;;;;3.78;3.20;;;;;;;12.43;65.41;98162.59;10582252;28;20110;-67
2023/05/13 05:23:12;;;;;;;6.53;3.25;;;;;;;12.52;65.75;98151.31;10567601;28;20063;-68
2023/05/13 05:28:33;;;;;;;7.05;3.75;;;;;;;12.70;65.46;98153.88;10581832;28;20115;-68
2023/05/13 05:33:55;;;;;;;4.90;3.70;;;;;;;13.01;65.36;98156.56;10581526;28;20162;-68
2023/05/13 05:39:15;;;;;;;6.72;4.18;;;;;;;13.10;63.35;98159.28;10581418;28;20122;-67
2023/05/13 05:44:36;;;;;;;6.38;4.13;;;;;;;13.10;63.21;98161.38;10566888;28;20115;-66
2023/05/13 05:49:57;;;;;;;6.47;4.38;;;;;;;13.41;63.32;98161.25;10552828;28;20456;-67
2023/05/13 05:55:18;;;;;;;6.93;3.30;;;;;;;13.31;62.42;98169.75;10566996;28;20123;-67
2023/05/13 06:00:39;;;;;;;4.25;2.83;;;;;;;13.30;61.32;98187.19;10581710;28;20047;-68
2023/05/13 06:05:59;;;;;;;6.60;2.95;;;;;;;12.83;61.46;98173.66;10566589;28;20113;-68
2023/05/13 06:11:20;;;;;;;5.55;1.98;;;;;;;12.68;61.31;98170.53;10580560;28;20491;-67
2023/05/13 06:16:41;;;;;;;3.80;2.20;;;;;;;12.58;62.12;98162.22;10580859;28;20107;-68
2023/05/13 06:22:02;;;;;;;4.35;2.55;;;;;;;12.71;61.99;98164.47;10566001;28;20124;-68
2023/05/13 06:27:23;;;;;;;4.07;2.60;;;;;;;12.66;62.29;98173.22;10581750;28;20120;-68
2023/05/13 06:32:44;;;;;;;4.45;2.53;;;;;;;12.73;62.37;98163.84;10580361;28;20126;-68
2023/05/13 06:38:20;;;;;;;5.15;3.10;;;;;;;12.86;62.53;98168.94;10581099;28;20122;-68
2023/05/13 06:43:44;;;;;;;4.40;2.88;;;;;;;13.15;62.71;98177.13;10571188;28;20120;-68
2023/05/13 06:49:13;;;;;;;5.00;3.22;;;;;;;13.30;61.65;98171.09;10575107;28;20082;-68
2023/05/13 06:54:34;;;;;;;3.55;2.90;;;;;;;13.92;61.53;98172.81;10574202;28;20139;-68
2023/05/13 06:59:54;;;;;;;4.40;2.78;;;;;;;14.66;58.06;98167.41;10587828;28;20044;-68
2023/05/13 07:05:15;;;;;;;5.78;2.92;;;;;;;14.33;57.66;98170.38;10588388;28;20047;-68
2023/05/13 07:10:36;;;;;;;5.03;3.15;;;;;;;14.21;57.26;98161.97;10588401;28;20047;-67
2023/05/13 07:15:56;;;;;;;5.28;2.85;;;;;;;14.26;57.62;98163.66;10586730;28;20063;-71
2023/05/13 07:21:17;;;;;;;4.05;2.72;;;;;;;14.60;57.08;98156.56;10586840;28;20123;-68
2023/05/13 07:26:38;;;;;;;4.22;2.53;;;;;;;15.14;56.33;98154.69;10586556;28;20368;-68
2023/05/13 07:32:05;;;;;;;5.43;2.92;;;;;;;15.43;54.87;98162.63;10572190;28;20139;-67
2023/05/13 07:37:26;;;;;;;7.22;3.15;;;;;;;14.97;54.64;98166.38;10572030;28;20438;-68
2023/05/13 07:42:46;;;;;;;5.13;3.03;;;;;;;14.98;54.88;98160.13;10586807;28;20123;-69
2023/05/13 07:48:08;;;;;;;4.60;2.85;;;;;;;14.62;55.51;98152.41;10585763;28;20044;-68
2023/05/13 07:53:29;;;;;;;8.50;3.03;;;;;;;14.63;55.44;98160.22;10584631;28;20115;-68
2023/05/13 07:58:50;;;;;;;6.88;3.05;;;;;;;14.33;56.05;98162.69;10585935;28;20074;-68
2023/05/13 08:04:10;;;;;;;4.03;2.90;;;;;;;14.03;56.89;98158.06;10585784;28;20505;-68
2023/05/13 08:09:31;;;;;;;5.90;3.30;;;;;;;13.65;58.22;98168.38;10584909;28;20044;-69
2023/05/13 08:14:52;;;;;;;4.97;3.15;;;;;;;13.54;58.87;98166.28;10584729;28;20097;-67
2023/05/13 08:20:14;;;;;;;5.05;2.80;;;;;;;13.69;59.16;98176.31;10584319;28;20558;-67
2023/05/13 08:25:34;;;;;;;3.83;2.25;;;;;;;13.41;59.22;98176.03;10584285;28;20036;-67
2023/05/13 08:31:01;;;;;;;2.63;1.90;;;;;;;13.69;58.72;98179.84;10584084;28;20155;-68
2023/05/13 08:36:24;;;;;;;4.50;3.30;;;;;;;14.24;58.37;98174.03;10584833;28;20039;-67
2023/05/13 08:41:45;;;;;;;5.10;3.00;;;;;;;14.42;57.27;98171.59;10569875;28;20161;-68
2023/05/13 08:47:14;;;;;;;4.45;2.47;;;;;;;14.68;56.84;98176.00;10584252;28;20074;-67
2023/05/13 08:52:35;;;;;;;2.30;1.80;;;;;;;14.67;55.93;98177.34;10584012;28;20119;-67
2023/05/13 08:57:55;;;;;;;2.42;2.15;;;;;;;14.59;55.55;98182.47;10583788;28;20071;-68
2023/05/13 09:03:16;;;;;;;6.07;2.30;;;;;;;14.75;55.64;98174.25;10583469;28;20036;-69
2023/05/13 09:08:37;;;;;;;4.28;2.05;;;;;;;14.45;55.25;98173.19;10568545;28;20493;-67
2023/05/13 09:13:58;;;;;;;3.00;2.42;;;;;;;13.94;56.60;98182.09;10568130;28;20123;-67
2023/05/13 09:19:18;;;;;;;3.95;2.65;;;;;;;13.76;57.82;98183.78;10581895;28;20118;-68
2023/05/13 09:24:40;;;;;;;4.95;2.17;;;;;;;13.70;57.89;98177.78;10567636;28;20075;-68
2023/05/13 09:30:01;;;;;;;4.13;2.20;;;;;;;13.59;58.66;98192.50;10567659;28;20122;-67
2023/05/13 09:35:21;;;;;;;3.35;2.38;;;;;;;13.52;58.89;98190.69;10581435;28;20122;-68
2023/05/13 09:40:52;;;;;;;4.95;1.88;;;;;;;13.24;60.19;98198.03;10582195;28;20114;-67
2023/05/13 09:46:14;;;;;;;2.10;1.48;;;;;;;13.13;61.62;98210.63;10567038;28;20052;-67
2023/05/13 09:51:35;;;;;;;2.40;1.50;;;;;;;12.95;63.38;98201.03;10581769;28;20119;-67
2023/05/13 09:57:00;;;;;;;2.25;1.30;;;;;;;13.30;63.71;98209.59;10566717;28;20489;-68
2023/05/13 10:02:20;;;;;;;2.15;1.20;;;;;;;13.97;62.74;98192.09;10581881;28;20161;-67
2023/05/13 10:07:41;;;;;;;2.58;1.40;;;;;;;14.27;61.10;98198.09;10581822;28;20044;-67
2023/05/13 10:13:13;;;;;;;2.38;1.40;;;;;;;13.83;61.62;98202.47;10580567;28;20044;-68
2023/05/13 10:18:33;;;;;;;2.40;1.42;;;;;;;13.68;62.27;98214.13;10572972;28;20115;-68
2023/05/13 10:23:55;;;;;;;1.77;1.30;;;;;;;13.78;61.81;98211.94;10589362;28;20066;-68
2023/05/13 10:29:15;;;;;;;2.13;1.10;;;;;;;13.75;61.13;98215.97;10589015;28;20063;-67
2023/05/13 10:34:36;;;;;;;2.08;1.40;;;;;;;13.84;60.04;98209.53;10574779;28;20071;-67
2023/05/13 10:40:35;;;;;;;2.90;1.52;;;;;;;14.32;59.07;98219.47;10588457;28;20107;-67
2023/05/13 10:46:05;;;;;;;2.60;1.50;;;;;;;14.80;57.60;98223.72;10589226;28;20044;-68
2023/05/13 10:51:26;;;;;;;2.85;1.58;;;;;;;15.05;56.14;98212.53;10587911;28;20093;-67
2023/05/13 10:56:57;;;;;;;2.28;0.93;;;;;;;15.54;54.09;98229.38;10587704;28;20481;-68
2023/05/13 11:02:22;;;;;;;1.42;0.70;;;;;;;15.69;52.10;98240.06;10587637;28;20119;-68
2023/05/13 11:07:43;;;;;;;2.30;0.60;;;;;;;15.77;51.64;98225.00;10587450;28;20047;-68
2023/05/13 11:13:13;;;;;;;1.40;1.13;;;;;;;15.79;51.74;98230.72;10572881;28;20509;-68
2023/05/13 11:18:34;;;;;;;2.28;0.80;;;;;;;16.15;51.15;98232.72;10587976;28;20493;-67
2023/05/13 11:23:56;;;;;;;1.23;0.80;;;;;;;16.20;51.17;98239.28;10572354;28;20122;-68
2023/05/13 11:29:36;;;;;;;1.35;0.90;;;;;;;16.24;50.45;98223.34;10571197;28;20109;-68
2023/05/13 11:35:05;;;;;;;1.02;0.80;;;;;;;16.05;50.51;98231.44;10586999;28;20201;-68
2023/05/13 11:40:33;;;;;;;1.92;1.00;;;;;;;15.87;50.87;98231.91;10587050;28;20119;-67
2023/05/13 11:45:54;;;;;;;1.92;1.23;;;;;;;16.18;50.60;98228.63;10586117;28;20046;-67
2023/05/13 11:51:17;;;;;;;1.48;1.00;;;;;;;16.15;50.35;98232.72;10571492;28;20047;-68
2023/05/13 11:56:37;;;;;;;1.85;1.00;;;;;;;15.85;51.24;98239.50;10585550;28;20115;-68
2023/05/13 12:01:59;;;;;;;2.30;1.30;;;;;;;15.84;51.47;98240.88;10570977;28;20069;-68
2023/05/13 12:07:21;;;;;;;1.67;1.27;;;;;;;16.50;50.75;98231.69;10585145;28;20477;-68
2023/05/13 12:12:44;;;;;;;2.50;1.60;;;;;;;16.21;49.97;98232.28;10571322;28;20488;-68
2023/05/13 12:18:05;;;;;;;3.22;1.42;;;;;;;16.21;50.72;98241.50;10584477;28;20454;-68
2023/05/13 12:23:37;;;;;;;1.63;1.13;;;;;;;16.47;50.24;98230.84;10584277;28;20114;-68
2023/05/13 12:28:58;;;;;;;2.08;1.00;;;;;;;17.12;49.34;98234.19;10570520;28;20039;-68
2023/05/13 12:34:32;;;;;;;2.90;1.27;;;;;;;16.93;48.59;98236.72;10569704;28;20070;-68
2023/05/13 12:40:07;;;;;;;;;;;;;;;16.59;48.61;98233.56;10569655;28;20060;-68
2023/05/13 12:45:29;;;;;;;1.95;1.10;;;;;;;16.48;49.20;98235.13;10584248;28;20032;-68
2023/05/13 12:50:50;;;;;;;1.88;1.40;;;;;;;16.73;49.13;98231.53;10584274;28;20118;-68
2023/05/13 12:56:11;;;;;;;2.67;1.42;;;;;;;16.70;49.38;98235.59;10583024;28;20493;-69
2023/05/13 13:01:32;;;;;;;1.95;1.40;;;;;;;17.42;48.31;98234.94;10582612;28;20110;-68
2023/05/13 13:06:53;;;;;;;3.53;1.20;;;;;;;17.42;47.99;98226.50;10582665;28;20389;-68
2023/05/13 13:12:13;;;;;;;2.03;0.90;;;;;;;18.04;46.08;98227.28;10568065;28;20059;-68
2023/05/13 13:17:34;;;;;;;1.88;0.90;;;;;;;17.98;45.19;98224.19;10583032;28;20187;-68
2023/05/13 13:22:55;;;;;;;2.08;1.00;;;;;;;18.23;44.96;98226.72;10567505;28;20118;-68
2023/05/13 13:28:16;;;;;;;1.33;0.93;;;;;;;18.30;44.74;98224.91;10581867;28;20055;-68
2023/05/13 13:33:36;;;;;;;1.42;0.98;;;;;;;17.95;45.46;98212.06;10582793;28;20180;-68
2023/05/13 13:38:57;;;;;;;2.03;1.08;;;;;;;17.63;45.76;98218.97;10567275;28;20044;-68
2023/05/13 13:44:18;;;;;;;2.65;1.27;;;;;;;17.43;45.91;98207.47;10582372;28;20516;-69
2023/05/13 13:49:39;;;;;;;2.50;1.10;;;;;;;17.16;46.55;98206.19;10566857;28;20453;-68
2023/05/13 13:55:00;;;;;;;1.42;1.13;;;;;;;17.08;46.75;98213.50;10581423;28;20049;-67
2023/05/13 14:00:20;;;;;;;3.00;1.08;;;;;;;16.65;47.94;98222.63;10580781;28;20046;-68
2023/05/13 14:05:41;;;;;;;2.08;1.08;;;;;;;16.22;49.05;98214.06;10580655;28;20050;-69
2023/05/13 14:11:02;;;;;;;3.70;1.40;;;;;;;15.72;50.80;98215.59;10580906;28;20094;-68
2023/05/13 14:16:23;;;;;;;2.58;1.42;;;;;;;15.18;52.26;98202.72;10581625;28;20097;-68
2023/05/13 14:21:46;;;;;;;3.55;2.00;;;;;;;14.88;54.03;98210.88;10566378;28;20122;-68
2023/05/13 14:27:07;;;;;;;;;;;;;;;14.69;55.13;98211.16;10581758;28;20118;-68
2023/05/13 14:32:28;;;;;;;4.20;2.03;;;;;;;14.62;55.76;98200.91;10581356;28;20007;-68
2023/05/13 14:37:48;;;;;;;2.67;2.28;;;;;;;14.80;56.32;98209.69;10565903;28;20040;-68
2023/05/13 14:43:09;;;;;;;2.40;1.67;;;;;;;15.33;56.36;98204.25;10581654;28;20036;-68
2023/05/13 14:48:30;;;;;;;2.95;1.80;;;;;;;15.67;55.22;98208.28;10580882;28;20119;-69
2023/05/13 14:53:51;;;;;;;3.70;1.60;;;;;;;15.83;54.95;98203.56;10565692;28;20122;-68
2023/05/13 14:59:12;;;;;;;2.38;1.55;;;;;;;15.96;54.38;98207.75;10565709;28;20064;-68
2023/05/13 15:04:32;;;;;;;3.95;2.63;;;;;;;16.08;53.80;98211.19;10569816;28;20043;-68
2023/05/13 15:09:54;;;;;;;2.45;1.80;;;;;;;15.85;53.20;98205.75;10588976;28;20118;-68
2023/05/13 15:15:14;;;;;;;2.40;1.63;;;;;;;15.83;53.50;98205.63;10587113;28;20128;-68
2023/05/13 15:20:35;;;;;;;4.25;1.92;;;;;;;15.83;53.27;98202.81;10587902;28;20079;-68
2023/05/13 15:25:55;;;;;;;4.47;1.48;;;;;;;15.96;52.40;98205.66;10587541;28;20120;-68
2023/05/13 15:31:16;;;;;;;2.28;1.38;;;;;;;15.69;51.07;98189.41;10572702;28;20082;-68
2023/05/13 15:36:37;;;;;;;2.83;1.55;;;;;;;15.68;51.21;98192.84;10587825;28;20165;-67
2023/05/13 15:41:58;;;;;;;2.67;1.90;;;;;;;15.56;51.57;98183.72;10586499;28;20533;-67
2023/05/13 15:47:19;;;;;;;3.50;1.50;;;;;;;15.46;51.92;98176.19;10587557;28;20122;-68
2023/05/13 15:52:40;;;;;;;1.48;0.93;;;;;;;15.57;51.57;98179.56;10587709;28;20048;-67
2023/05/13 15:58:01;;;;;;;2.60;1.50;;;;;;;15.54;51.21;98178.72;10572611;28;20136;-67
2023/05/13 16:03:22;;;;;;;1.92;1.10;;;;;;;15.45;51.46;98165.56;10586861;28;20566;-69
2023/05/13 16:08:43;;;;;;;4.60;1.55;;;;;;;15.46;51.02;98167.03;10587145;28;20567;-68
2023/05/13 16:14:06;;;;;;;3.50;1.10;;;;;;;15.16;50.94;98164.00;10584276;28;20550;-68
2023/05/13 16:19:27;;;;;;;2.90;1.05;;;;;;;14.97;51.18;98158.69;10571052;28;20081;-68
2023/05/13 16:24:48;;;;;;;3.17;1.10;;;;;;;15.00;51.56;98163.06;10585608;28;20379;-68
2023/05/13 16:30:10;;;;;;;1.67;1.10;;;;;;;15.04;51.28;98151.31;10584930;28;20126;-68
2023/05/13 16:35:31;;;;;;;4.60;1.10;;;;;;;15.15;51.01;98148.47;10555679;28;20058;-68
2023/05/13 16:40:52;;;;;;;2.67;0.98;;;;;;;15.21;51.03;98150.16;10584554;28;20378;-68
2023/05/13 16:46:13;;;;;;;2.25;1.10;;;;;;;15.28;50.91;98146.31;10583985;28;20046;-68
2023/05/13 16:51:36;;;;;;;1.70;0.90;;;;;;;15.26;50.83;98144.13;10583265;28;20118;-68
2023/05/13 16:56:57;;;;;;;5.00;1.17;;;;;;;15.21;51.05;98144.53;10568645;28;20473;-67
2023/05/13 17:02:19;;;;;;;1.80;0.90;;;;;;;15.28;50.92;98149.88;10568437;28;20393;-68
2023/05/13 17:07:39;;;;;;;2.33;1.17;;;;;;;15.27;50.93;98144.88;10582977;28;20071;-67
2023/05/13 17:13:00;;;;;;;2.53;0.98;;;;;;;15.20;51.00;98146.59;10568457;28;20047;-68
2023/05/13 17:18:21;;;;;;;1.33;0.98;;;;;;;15.14;50.95;98144.16;10567868;28;20053;-68
2023/05/13 17:23:42;;;;;;;2.30;1.05;;;;;;;15.18;50.77;98150.03;10582971;28;20093;-68
2023/05/13 17:29:03;;;;;;;2.08;1.20;;;;;;;15.15;50.90;98150.53;10581045;28;20047;-68
2023/05/13 17:34:25;;;;;;;1.95;1.02;;;;;;;15.00;51.06;98149.00;10582042;28;20039;-68
2023/05/13 17:39:46;;;;;;;2.28;1.20;;;;;;;14.87;51.77;98149.69;10581626;28;20059;-68
2023/05/13 17:45:07;;;;;;;2.63;1.10;;;;;;;14.68;52.09;98149.97;10582184;28;20393;-68
2023/05/13 17:50:30;;;;;;;1.85;1.20;;;;;;;14.54;51.95;98147.78;10581418;28;20413;-67
2023/05/13 17:55:52;;;;;;;1.90;1.30;;;;;;;14.50;52.28;98146.84;10581899;28;20048;-69
2023/05/13 18:01:13;;;;;;;1.98;1.33;;;;;;;14.44;52.33;98149.25;10581940;28;20040;-68
2023/05/13 18:06:34;;;;;;;2.55;1.33;;;;;;;14.41;52.33;98148.41;10580796;28;20482;-68
2023/05/13 18:11:55;;;;;;;2.65;1.40;;;;;;;14.35;52.58;98144.50;10566464;28;20406;-68
2023/05/13 18:17:16;;;;;;;1.80;1.25;;;;;;;14.26;52.75;98140.47;10580755;28;20047;-68
2023/05/13 18:22:36;;;;;;;3.83;1.55;;;;;;;14.19;53.03;98145.00;10552109;28;20044;-68
2023/05/13 18:27:57;;;;;;;1.92;1.33;;;;;;;14.16;53.40;98143.41;10580525;28;20031;-69
2023/05/13 18:33:18;;;;;;;2.72;1.70;;;;;;;14.06;53.66;98137.19;10581269;28;20086;-68
2023/05/13 18:38:39;;;;;;;2.88;1.50;;;;;;;14.09;53.46;98158.44;10583619;28;20040;-68
2023/05/13 18:44:00;;;;;;;3.28;1.80;;;;;;;14.08;53.51;98159.03;10588249;28;20043;-67
2023/05/13 18:49:23;;;;;;;2.60;1.70;;;;;;;14.06;53.40;98153.28;10589222;28;20534;-68
2023/05/13 18:54:44;;;;;;;4.33;2.30;;;;;;;14.09;53.79;98163.28;10574216;28;20044;-68
2023/05/13 19:00:05;;;;;;;3.35;1.95;;;;;;;14.12;53.50;98162.81;10588802;28;20118;-68
2023/05/13 19:05:26;;;;;;;2.75;1.50;;;;;;;14.13;53.37;98166.38;10559249;28;20043;-68
2023/05/13 19:10:46;;;;;;;3.80;1.90;;;;;;;14.11;53.49;98174.66;10573232;28;20106;-68
2023/05/13 19:16:07;;;;;;;2.90;1.70;;;;;;;14.07;53.03;98175.13;10587258;28;20043;-68
2023/05/13 19:21:28;;;;;;;2.78;1.90;;;;;;;14.01;53.15;98178.31;10586960;28;20044;-68
2023/05/13 19:26:48;;;;;;;6.45;2.28;;;;;;;13.94;53.20;98178.56;10587654;28;20044;-68
2023/05/13 19:32:09;;;;;;;3.63;2.10;;;;;;;13.89;53.30;98176.81;10572682;28;20055;-68
2023/05/13 19:37:30;;;;;;;4.38;2.42;;;;;;;13.84;53.27;98173.06;10586779;28;20085;-68
2023/05/13 19:42:50;;;;;;;5.57;1.98;;;;;;;13.87;53.63;98179.53;10587115;28;20115;-68
2023/05/13 19:48:12;;;;;;;4.00;2.08;;;;;;;13.86;53.62;98173.19;10585498;28;20044;-68
2023/05/13 19:53:34;;;;;;;2.80;1.90;;;;;;;13.83;53.54;98185.63;10585580;28;20053;-68
2023/05/13 19:58:55;;;;;;;3.90;2.22;;;;;;;13.88;53.71;98181.72;10585827;28;20050;-67
2023/05/13 20:04:16;;;;;;;4.65;2.15;;;;;;;13.83;53.74;98174.41;10586024;28;20069;-67
2023/05/13 20:09:37;;;;;;;4.00;2.00;;;;;;;13.85;53.85;98182.94;10586082;28;20043;-68
2023/05/13 20:14:59;;;;;;;4.95;2.58;;;;;;;13.84;53.96;98170.25;10584806;28;20119;-68
2023/05/13 20:20:20;;;;;;;6.03;2.75;;;;;;;13.75;54.63;98169.00;10584750;28;20043;-68
2023/05/13 20:25:41;;;;;;;4.80;2.83;;;;;;;13.64;54.92;98175.34;10585130;28;20063;-67
2023/05/13 20:31:02;;;;;;;5.63;3.22;;;;;;;13.58;55.27;98172.16;10584157;28;20083;-68
2023/05/13 20:36:22;;;;;;;3.85;2.70;;;;;;;13.52;55.83;98173.84;10569588;28;20127;-67
2023/05/13 20:41:43;;;;;;;5.20;3.33;;;;;;;13.45;56.34;98176.28;10583722;28;20119;-68
2023/05/13 20:47:03;;;;;;;4.05;2.70;;;;;;;13.51;56.19;98169.56;10584555;28;20112;-68
2023/05/13 20:52:25;;;;;;;5.00;3.13;;;;;;;13.54;56.89;98173.97;10568985;28;20059;-68
2023/05/13 20:57:46;;;;;;;4.50;3.28;;;;;;;13.57;56.54;98175.56;10554999;28;20164;-68
2023/05/13 21:03:07;;;;;;;4.38;3.20;;;;;;;13.54;56.89;98168.38;10582535;28;20064;-68
2023/05/13 21:08:28;;;;;;;7.25;3.25;;;;;;;13.50;56.85;98166.03;10582511;28;20039;-68
2023/05/13 21:13:50;;;;;;;6.05;3.45;;;;;;;13.39;57.11;98170.25;10582344;28;20122;-68
2023/05/13 21:19:37;;;;;;;6.25;3.88;;;;;;;13.33;57.39;98166.38;10568564;28;20146;-69
2023/05/13 21:24:57;;;;;;;5.03;3.42;;;;;;;13.24;57.35;98159.50;10583041;28;20500;-68
2023/05/13 21:30:18;;;;;;;6.57;3.72;;;;;;;13.18;58.35;98161.88;10581624;28;20169;-68
2023/05/13 21:35:39;;;;;;;7.75;3.65;;;;;;;13.15;57.98;98165.91;10567512;28;20541;-68
2023/05/13 21:41:00;;;;;;;8.35;4.22;;;;;;;13.12;58.11;98165.06;10582849;28;20074;-68
2023/05/13 21:46:20;;;;;;;4.97;3.47;;;;;;;13.11;58.24;98157.22;10582163;28;20169;-69
2023/05/13 21:51:41;;;;;;;5.38;3.25;;;;;;;13.08;58.54;98158.44;10581332;28;20171;-68
2023/05/13 21:57:01;;;;;;;6.07;4.10;;;;;;;13.08;58.98;98155.63;10580965;28;20162;-68
2023/05/13 22:02:22;;;;;;;5.72;3.53;;;;;;;13.09;59.23;98148.69;10581952;28;20047;-68
2023/05/13 22:07:43;;;;;;;7.95;4.10;;;;;;;13.09;59.31;98151.50;10582173;28;20093;-67
2023/05/13 22:13:04;;;;;;;7.07;3.75;;;;;;;13.10;59.40;98153.69;10569031;28;20043;-68
2023/05/13 22:18:25;;;;;;;5.65;4.13;;;;;;;13.07;59.21;98151.38;10590348;28;20118;-68
2023/05/13 22:23:46;;;;;;;5.82;3.97;;;;;;;13.01;58.98;98156.56;10589076;28;20047;-69
2023/05/13 22:29:06;;;;;;;6.90;4.43;;;;;;;12.98;59.11;98154.97;10590255;28;20443;-68
2023/05/13 22:34:27;;;;;;;7.82;4.50;;;;;;;12.94;59.66;98147.06;10588818;28;20122;-68
2023/05/13 22:39:48;;;;;;;6.45;3.97;;;;;;;12.88;59.64;98138.97;10588832;28;20462;-68
2023/05/13 22:45:09;;;;;;;6.78;3.78;;;;;;;12.84;60.02;98133.13;10589227;28;20039;-68
2023/05/13 22:50:30;;;;;;;5.30;3.85;;;;;;;12.86;59.77;98138.84;10588309;28;20117;-68
2023/05/13 22:55:50;;;;;;;6.50;3.78;;;;;;;12.83;60.12;98128.84;10589457;28;20128;-68
2023/05/13 23:01:11;;;;;;;5.00;3.50;;;;;;;12.78;60.22;98124.31;10607976;22;20083;-68
2023/05/13 23:06:31;;;;;;;3.78;3.22;;;;;;;12.73;60.50;98108.56;10489380;28;20174;-68
2023/05/13 23:11:52;;;;;;;6.65;3.78;;;;;;;12.68;60.30;98123.66;10489444;28;20434;-68
2023/05/13 23:17:13;;;;;;;4.63;3.30;;;;;;;12.58;60.79;98120.19;10489264;28;20575;-68
2023/05/13 23:22:34;;;;;;;5.75;3.80;;;;;;;12.53;61.39;98108.00;10503863;28;20128;-69
2023/05/13 23:27:54;;;;;;;6.15;3.40;;;;;;;12.49;61.44;98104.94;10475305;28;20173;-68
2023/05/13 23:33:15;;;;;;;5.75;3.83;;;;;;;12.47;61.41;98109.69;10503332;28;20178;-68
2023/05/13 23:38:36;;;;;;;5.70;4.00;;;;;;;12.44;62.37;98113.66;10488933;28;20493;-68
2023/05/13 23:43:56;;;;;;;6.25;3.35;;;;;;;12.34;62.31;98108.13;10487904;28;20409;-67
2023/05/13 23:49:17;;;;;;;5.07;3.00;;;;;;;12.22;63.08;98108.06;10487843;28;20044;-68
2023/05/13 23:54:37;;;;;;;4.15;3.22;;;;;;;12.03;63.31;98102.56;10487433;28;20128;-68
2023/05/13 23:59:58;;;;;;;5.28;3.42;;;;;;;11.89;63.82;98098.81;10502357;28;20068;-67
